createdAt,value
2023-02-08T00:02:26.441Z,17.50
2023-02-08T00:04:54.385Z,17.53
2023-02-08T00:07:22.257Z,19.40
2023-02-08T00:09:50.406Z,18.07
2023-02-08T00:12:19.639Z,19.37
2023-02-08T00:14:47.610Z,18.73
2023-02-08T00:17:15.601Z,18.47
2023-02-08T00:19:43.705Z,18.00
2023-02-08T00:22:11.678Z,19.20
2023-02-08T00:24:39.783Z,19.73
2023-02-08T00:27:07.846Z,18.87
2023-02-08T00:29:37.987Z,19.17
2023-02-08T00:32:06.707Z,19.47
2023-02-08T00:34:35.206Z,18.93
2023-02-08T00:37:03.114Z,20.20
2023-02-08T00:39:31.780Z,19.93
2023-02-08T00:42:00.323Z,19.67
2023-02-08T00:44:28.370Z,20.60
2023-02-08T00:46:57.714Z,20.23
2023-02-08T00:49:25.892Z,27.87
2023-02-08T00:51:53.825Z,24.43
2023-02-08T00:54:22.779Z,24.90
2023-02-08T00:56:51.124Z,28.83
2023-02-08T00:59:19.940Z,22.07
2023-02-08T01:01:47.866Z,21.83
2023-02-08T01:04:17.948Z,20.03
2023-02-08T01:06:45.908Z,18.23
2023-02-08T01:09:13.894Z,18.13
2023-02-08T01:11:42.133Z,17.17
2023-02-08T01:14:10.432Z,16.27
2023-02-08T01:16:38.697Z,16.00
2023-02-08T01:19:07.214Z,17.07
2023-02-08T01:21:40.366Z,17.03
2023-02-08T01:24:08.753Z,15.60
2023-02-08T01:26:36.948Z,16.80
2023-02-08T01:29:07.222Z,17.83
2023-02-08T01:31:37.418Z,15.53
2023-02-08T01:34:06.788Z,16.47
2023-02-08T01:36:35.980Z,15.80
2023-02-08T01:39:06.663Z,15.93
2023-02-08T01:41:36.362Z,15.63
2023-02-08T01:44:30.380Z,15.77
2023-02-08T01:46:58.310Z,15.70
2023-02-08T01:49:30.661Z,15.10
2023-02-08T01:52:02.896Z,14.43
2023-02-08T01:54:38.950Z,13.90
2023-02-08T01:57:07.787Z,14.87
2023-02-08T01:59:41.777Z,15.07
2023-02-08T02:02:14.567Z,14.13
2023-02-08T02:04:42.596Z,14.10
2023-02-08T02:07:11.354Z,14.27
2023-02-08T02:09:45.970Z,13.00
2023-02-08T02:12:14.789Z,11.83
2023-02-08T02:14:43.351Z,14.10
2023-02-08T02:17:13.916Z,13.23
2023-02-08T02:19:53.678Z,14.37
2023-02-08T02:22:45.898Z,13.70
2023-02-08T02:25:35.334Z,14.57
2023-02-08T02:28:28.257Z,15.00
2023-02-08T02:31:17.177Z,16.23
2023-02-08T02:33:57.815Z,16.10
2023-02-08T02:36:44.766Z,15.80
2023-02-08T02:39:19.164Z,15.40
2023-02-08T02:42:13.734Z,15.70
2023-02-08T02:44:51.932Z,14.97
2023-02-08T02:47:28.695Z,14.40
2023-02-08T02:50:04.918Z,14.90
2023-02-08T02:52:38.197Z,15.93
2023-02-08T02:55:09.796Z,15.47
2023-02-08T02:57:38.890Z,16.50
2023-02-08T03:00:10.549Z,15.13
2023-02-08T03:02:39.043Z,15.50
2023-02-08T03:05:12.749Z,15.60
2023-02-08T03:08:08.330Z,15.77
2023-02-08T03:10:55.669Z,14.43
2023-02-08T03:13:32.872Z,15.87
2023-02-08T03:16:17.340Z,15.20
2023-02-08T03:18:56.576Z,15.43
2023-02-08T03:21:36.442Z,15.23
2023-02-08T03:24:17.221Z,15.07
2023-02-08T03:26:53.969Z,14.53
2023-02-08T03:29:33.137Z,14.83
2023-02-08T03:32:03.593Z,15.87
2023-02-08T03:34:38.879Z,15.53
2023-02-08T03:37:14.419Z,16.60
2023-02-08T03:39:44.071Z,16.10
2023-02-08T03:42:17.833Z,16.50
2023-02-08T03:44:49.670Z,16.53
2023-02-08T03:47:21.276Z,15.90
2023-02-08T03:49:53.061Z,16.90
2023-02-08T03:52:24.167Z,15.93
2023-02-08T03:54:54.624Z,15.27
2023-02-08T03:57:25.121Z,15.67
2023-02-08T03:59:57.852Z,16.87
2023-02-08T04:02:29.233Z,16.60
2023-02-08T04:04:58.917Z,16.30
2023-02-08T04:07:28.219Z,17.20
2023-02-08T04:09:56.205Z,16.97
2023-02-08T04:12:24.222Z,16.77
2023-02-08T04:14:52.146Z,17.20
2023-02-08T04:17:20.066Z,17.80
2023-02-08T04:19:47.970Z,16.63
2023-02-08T04:22:15.878Z,18.47
2023-02-08T04:24:45.130Z,17.93
2023-02-08T04:27:13.049Z,18.23
2023-02-08T04:29:41.673Z,19.77
2023-02-08T04:32:11.632Z,19.03
2023-02-08T04:34:39.604Z,18.47
2023-02-08T04:37:08.094Z,18.70
2023-02-08T04:39:36.146Z,21.03
2023-02-08T04:42:05.425Z,20.63
2023-02-08T04:44:33.753Z,20.67
2023-02-08T04:47:01.868Z,18.40
2023-02-08T04:49:29.764Z,20.43
2023-02-08T04:51:57.710Z,20.20
2023-02-08T04:54:25.616Z,21.90
2023-02-08T04:56:53.513Z,24.07
2023-02-08T04:59:22.758Z,24.20
2023-02-08T05:01:50.768Z,21.70
2023-02-08T05:04:18.720Z,23.60
2023-02-08T05:06:48.367Z,22.23
2023-02-08T05:09:16.582Z,22.33
2023-02-08T05:11:44.524Z,22.23
2023-02-08T05:14:12.469Z,22.40
2023-02-08T05:16:41.862Z,20.40
2023-02-08T05:19:11.501Z,18.57
2023-02-08T05:21:39.418Z,19.30
2023-02-08T05:24:07.766Z,19.30
2023-02-08T05:26:35.669Z,18.67
2023-02-08T05:29:03.694Z,17.80
2023-02-08T05:31:31.750Z,17.10
2023-02-08T05:34:01.104Z,17.93
2023-02-08T05:36:29.069Z,18.20
2023-02-08T05:38:57.017Z,16.93
2023-02-08T05:41:24.933Z,18.77
2023-02-08T05:43:52.920Z,18.17
2023-02-08T05:46:20.961Z,19.23
2023-02-08T05:48:48.903Z,18.20
2023-02-08T05:51:18.174Z,18.97
2023-02-08T05:53:46.103Z,19.07
2023-02-08T05:56:14.193Z,19.23
2023-02-08T05:58:42.202Z,18.00
2023-02-08T06:01:11.276Z,19.73
2023-02-08T06:03:39.592Z,19.77
2023-02-08T06:06:08.021Z,19.63
2023-02-08T06:08:37.997Z,18.10
2023-02-08T06:11:06.747Z,18.97
2023-02-08T06:13:34.894Z,18.90
2023-02-08T06:16:02.944Z,18.20
2023-02-08T06:18:30.904Z,19.47
2023-02-08T06:20:58.864Z,18.33
2023-02-08T06:23:26.728Z,16.47
2023-02-08T06:25:55.997Z,16.43
2023-02-08T06:28:24.055Z,16.67
2023-02-08T06:30:52.666Z,17.50
2023-02-08T06:33:20.623Z,16.83
2023-02-08T06:35:48.816Z,17.03
2023-02-08T06:38:16.732Z,16.60
2023-02-08T06:40:45.124Z,16.93
2023-02-08T06:43:15.476Z,18.33
2023-02-08T06:45:45.841Z,17.97
2023-02-08T06:48:14.048Z,17.60
2023-02-08T06:50:42.304Z,19.67
2023-02-08T06:53:10.326Z,18.10
2023-02-08T06:55:38.738Z,17.80
2023-02-08T06:58:06.871Z,19.03
2023-02-08T07:00:36.152Z,19.53
2023-02-08T07:03:04.086Z,19.57
2023-02-08T07:05:32.118Z,19.60
2023-02-08T07:07:59.983Z,19.17
2023-02-08T07:10:28.012Z,20.47
2023-02-08T07:12:55.948Z,22.10
2023-02-08T07:15:24.107Z,21.10
2023-02-08T07:17:53.421Z,22.33
2023-02-08T07:20:21.522Z,23.00
2023-02-08T07:22:49.472Z,23.03
2023-02-08T07:25:17.659Z,23.67
2023-02-08T07:27:45.663Z,24.73
2023-02-08T07:30:14.298Z,25.83
2023-02-08T07:32:42.305Z,25.37
2023-02-08T07:35:11.548Z,25.40
2023-02-08T07:37:40.246Z,26.50
2023-02-08T07:40:08.990Z,26.27
2023-02-08T07:42:36.941Z,26.23
2023-02-08T07:45:16.413Z,25.40
2023-02-08T07:47:44.383Z,26.60
2023-02-08T07:50:13.663Z,29.03
2023-02-08T07:52:43.172Z,27.87
2023-02-08T07:55:11.776Z,26.13
2023-02-08T07:57:39.778Z,28.37
2023-02-08T08:00:08.937Z,26.93
2023-02-08T08:02:40.241Z,25.37
2023-02-08T08:05:08.832Z,27.20
2023-02-08T08:07:38.708Z,24.30
2023-02-08T08:10:07.519Z,23.63
2023-02-08T08:12:35.507Z,22.83
2023-02-08T08:15:03.472Z,24.03
2023-02-08T08:17:31.383Z,22.63
2023-02-08T08:19:59.269Z,19.63
2023-02-08T08:22:27.292Z,19.00
2023-02-08T08:24:58.146Z,17.67
2023-02-08T08:27:26.200Z,18.20
2023-02-08T08:29:54.128Z,17.17
2023-02-08T08:32:22.033Z,16.83
2023-02-08T08:34:49.924Z,16.17
2023-02-08T08:37:17.876Z,15.73
2023-02-08T08:39:46.198Z,16.17
2023-02-08T08:42:15.525Z,13.97
2023-02-08T08:44:44.694Z,13.60
2023-02-08T08:47:12.620Z,13.40
2023-02-08T08:49:40.592Z,13.00
2023-02-08T08:52:08.474Z,13.90
2023-02-08T08:54:36.629Z,14.77
2023-02-08T08:57:05.512Z,14.10
2023-02-08T08:59:35.188Z,13.60
2023-02-08T09:02:03.122Z,12.83
2023-02-08T09:04:31.142Z,13.70
2023-02-08T09:06:59.039Z,13.87
2023-02-08T09:09:27.026Z,14.33
2023-02-08T09:11:55.034Z,12.93
2023-02-08T09:14:22.978Z,13.80
2023-02-08T09:16:52.732Z,14.40
2023-02-08T09:19:20.671Z,15.13
2023-02-08T09:21:48.675Z,14.90
2023-02-08T09:24:17.805Z,16.17
2023-02-08T09:26:46.340Z,17.10
2023-02-08T09:29:15.330Z,17.50
2023-02-08T09:31:43.519Z,17.10
2023-02-08T09:34:12.926Z,17.80
2023-02-08T09:36:42.318Z,18.20
2023-02-08T09:39:13.295Z,18.03
2023-02-08T09:42:11.343Z,18.90
2023-02-08T09:44:48.138Z,18.27
2023-02-08T09:47:21.754Z,17.97
2023-02-08T09:49:58.704Z,19.87
2023-02-08T09:52:34.173Z,18.63
2023-02-08T09:55:10.673Z,19.37
2023-02-08T09:57:40.303Z,19.33
2023-02-08T10:00:15.245Z,19.17
2023-02-08T10:02:45.210Z,18.67
2023-02-08T10:05:20.086Z,18.63
2023-02-08T10:07:48.289Z,17.47
2023-02-08T10:10:22.931Z,19.50
2023-02-08T10:13:03.732Z,19.03
2023-02-08T10:15:41.877Z,17.23
2023-02-08T10:18:25.810Z,17.03
2023-02-08T10:21:16.769Z,17.57
2023-02-08T10:23:58.340Z,17.33
2023-02-08T10:26:34.317Z,17.13
2023-02-08T10:29:22.597Z,16.40
2023-02-08T10:32:16.514Z,16.57
2023-02-08T10:34:48.023Z,15.23
2023-02-08T10:37:20.603Z,16.07
2023-02-08T10:39:50.821Z,15.40
2023-02-08T10:42:22.265Z,15.77
2023-02-08T10:45:03.134Z,15.43
2023-02-08T10:47:43.909Z,13.83
2023-02-08T10:50:21.518Z,15.67
2023-02-08T10:52:50.939Z,17.87
2023-02-08T10:55:21.271Z,16.87
2023-02-08T10:57:52.598Z,17.57
2023-02-08T11:00:24.603Z,16.73
2023-02-08T11:02:53.694Z,16.83
2023-02-08T11:05:32.250Z,15.93
2023-02-08T11:08:09.547Z,16.30
2023-02-08T11:10:38.735Z,14.30
2023-02-08T11:13:16.096Z,16.33
2023-02-08T11:15:47.936Z,15.43
2023-02-08T11:18:25.504Z,15.63
2023-02-08T11:20:56.099Z,8.20
2023-02-08T11:23:30.125Z,7.37
2023-02-08T11:26:18.050Z,7.00
2023-02-08T11:28:59.458Z,6.07
2023-02-08T11:31:28.449Z,5.87
2023-02-08T11:34:01.660Z,5.43
2023-02-08T11:36:32.548Z,6.57
2023-02-08T11:39:15.796Z,7.40
2023-02-08T11:41:45.980Z,8.00
2023-02-08T11:44:21.812Z,9.17
2023-02-08T11:46:52.015Z,11.00
2023-02-08T11:49:25.140Z,12.40
2023-02-08T11:51:53.720Z,12.27
2023-02-08T11:54:41.353Z,12.63
2023-02-08T11:57:15.503Z,13.60
2023-02-08T11:59:43.778Z,13.93
2023-02-08T12:02:35.589Z,11.43
2023-02-08T12:05:04.353Z,10.30
2023-02-08T12:07:53.383Z,10.63
2023-02-08T12:10:43.249Z,9.20
2023-02-08T12:13:22.209Z,10.30
2023-02-08T12:16:02.470Z,9.40
2023-02-08T12:18:46.832Z,9.30
2023-02-08T12:21:19.042Z,9.13
2023-02-08T12:23:51.710Z,7.33
2023-02-08T12:26:34.152Z,7.60
2023-02-08T12:29:23.777Z,10.80
2023-02-08T12:32:15.917Z,9.00
2023-02-08T12:34:58.601Z,7.33
2023-02-08T12:37:55.927Z,8.77
2023-02-08T12:40:53.894Z,10.60
2023-02-08T12:43:41.494Z,11.53
2023-02-08T12:46:27.532Z,10.30
2023-02-08T12:49:09.440Z,9.43
2023-02-08T12:51:48.022Z,10.33
2023-02-08T12:54:22.660Z,8.57
2023-02-08T12:57:01.705Z,7.70
2023-02-08T12:59:36.794Z,8.97
2023-02-08T13:02:14.525Z,8.70
2023-02-08T13:04:46.221Z,7.60
2023-02-08T13:07:21.184Z,7.30
2023-02-08T13:09:56.106Z,6.20
2023-02-08T13:12:28.268Z,6.47
2023-02-08T13:15:03.451Z,5.50
2023-02-08T13:17:42.754Z,3.87
2023-02-08T13:20:31.049Z,5.03
2023-02-08T13:23:03.606Z,4.67
2023-02-08T13:25:35.267Z,5.43
2023-02-08T13:28:04.870Z,13.43
2023-02-08T13:30:38.809Z,7.37
2023-02-08T13:33:16.237Z,5.67
2023-02-08T13:35:50.109Z,5.00
2023-02-08T13:38:25.132Z,5.50
2023-02-08T13:41:05.526Z,5.23
2023-02-08T13:43:40.264Z,4.80
2023-02-08T13:46:11.590Z,4.97
2023-02-08T13:48:45.316Z,5.03
2023-02-08T13:51:49.648Z,4.93
2023-02-08T13:54:17.768Z,5.33
2023-02-08T13:56:48.171Z,5.50
2023-02-08T13:59:28.029Z,6.33
2023-02-08T14:02:27.196Z,5.77
2023-02-08T14:05:14.766Z,5.13
2023-02-08T14:07:47.254Z,5.90
2023-02-08T14:10:31.890Z,4.87
2023-02-08T14:13:06.939Z,7.30
2023-02-08T14:15:39.936Z,7.50
2023-02-08T14:18:25.401Z,5.40
2023-02-08T14:21:02.590Z,5.83
2023-02-08T14:23:32.450Z,5.60
2023-02-08T14:26:04.595Z,6.37
2023-02-08T14:28:36.701Z,5.60
2023-02-08T14:31:09.065Z,5.97
2023-02-08T14:33:41.356Z,5.50
2023-02-08T14:36:23.585Z,6.07
2023-02-08T14:39:04.763Z,5.30
2023-02-08T14:41:48.906Z,6.03
2023-02-08T14:44:55.542Z,7.07
2023-02-08T14:48:04.399Z,9.40
2023-02-08T14:50:39.821Z,9.03
2023-02-08T14:53:32.006Z,8.33
2023-02-08T14:56:06.215Z,9.27
2023-02-08T14:58:37.367Z,8.70
2023-02-08T15:01:13.902Z,11.03
2023-02-08T15:03:43.192Z,10.37
2023-02-08T15:06:50.764Z,10.03
2023-02-08T15:09:21.807Z,9.73
2023-02-08T15:12:01.915Z,9.53
2023-02-08T15:14:31.982Z,8.50
2023-02-08T15:17:00.372Z,9.27
2023-02-08T15:19:34.219Z,9.87
2023-02-08T15:22:20.733Z,8.67
2023-02-08T15:24:52.665Z,10.00
2023-02-08T15:27:23.048Z,9.90
2023-02-08T15:29:51.455Z,10.17
2023-02-08T15:32:22.799Z,10.00
2023-02-08T15:35:02.361Z,9.80
2023-02-08T15:37:34.464Z,9.40
2023-02-08T15:40:04.638Z,10.13
2023-02-08T15:42:35.177Z,10.07
2023-02-08T15:45:04.487Z,11.23
2023-02-08T15:47:34.633Z,10.47
2023-02-08T15:50:04.042Z,16.37
2023-02-08T15:52:36.583Z,18.90
2023-02-08T15:55:07.904Z,19.20
2023-02-08T15:57:40.137Z,17.93
2023-02-08T16:00:18.758Z,18.00
2023-02-08T16:02:53.490Z,17.37
2023-02-08T16:05:25.283Z,17.83
2023-02-08T16:07:55.576Z,17.23
2023-02-08T16:10:30.348Z,17.10
2023-02-08T16:13:02.153Z,16.90
2023-02-08T16:15:42.897Z,18.87
2023-02-08T16:18:33.334Z,20.43
2023-02-08T16:21:02.253Z,18.10
2023-02-08T16:23:33.056Z,16.97
2023-02-08T16:26:13.556Z,17.33
2023-02-08T16:28:41.542Z,17.60
2023-02-08T16:31:09.798Z,18.53
2023-02-08T16:33:39.622Z,17.67
2023-02-08T16:36:07.717Z,18.17
2023-02-08T16:38:37.119Z,17.27
2023-02-08T16:41:13.469Z,20.70
2023-02-08T16:43:44.068Z,21.13
2023-02-08T16:46:25.234Z,20.03
2023-02-08T16:48:55.340Z,20.37
2023-02-08T16:51:25.315Z,21.80
2023-02-08T16:53:56.956Z,20.70
2023-02-08T16:56:25.550Z,24.07
2023-02-08T16:58:53.533Z,22.87
2023-02-08T17:01:23.266Z,22.10
2023-02-08T17:03:53.020Z,20.70
2023-02-08T17:06:29.683Z,21.77
2023-02-08T17:08:59.789Z,20.50
2023-02-08T17:11:28.705Z,19.90
2023-02-08T17:13:58.295Z,20.47
2023-02-08T17:16:29.224Z,19.80
2023-02-08T17:18:58.041Z,19.03
2023-02-08T17:21:26.139Z,18.97
2023-02-08T17:23:54.082Z,19.67
2023-02-08T17:26:27.275Z,19.60
2023-02-08T17:28:55.996Z,22.53
2023-02-08T17:31:24.778Z,24.73
2023-02-08T17:33:53.225Z,23.87
2023-02-08T17:36:21.165Z,21.93
2023-02-08T17:38:49.417Z,22.57
2023-02-08T17:41:19.067Z,23.50
2023-02-08T17:43:52.080Z,23.53
2023-02-08T17:46:22.559Z,25.87
2023-02-08T17:48:50.705Z,24.70
2023-02-08T17:51:20.952Z,24.43
2023-02-08T17:53:49.239Z,24.53
2023-02-08T17:56:20.462Z,27.37
2023-02-08T17:58:53.598Z,32.83
2023-02-08T18:01:24.104Z,34.43
2023-02-08T18:03:53.362Z,36.03
2023-02-08T18:06:21.580Z,43.90
2023-02-08T18:08:49.496Z,43.27
2023-02-08T18:11:20.239Z,41.50
2023-02-08T18:13:54.008Z,38.47
2023-02-08T18:16:23.775Z,37.57
2023-02-08T18:18:52.408Z,34.77
2023-02-08T18:21:22.431Z,34.30
2023-02-08T18:23:50.738Z,36.67
2023-02-08T18:26:20.422Z,36.23
2023-02-08T18:28:49.933Z,37.80
2023-02-08T18:31:20.368Z,38.80
2023-02-08T18:33:49.857Z,38.57
2023-02-08T18:36:18.511Z,38.33
2023-02-08T18:38:48.178Z,37.67
2023-02-08T18:41:19.928Z,36.83
2023-02-08T18:43:50.210Z,37.50
2023-02-08T18:46:19.948Z,38.33
2023-02-08T18:48:48.538Z,36.47
2023-02-08T18:51:19.644Z,33.93
2023-02-08T18:53:50.585Z,34.03
2023-02-08T18:56:21.561Z,33.23
2023-02-08T18:58:51.752Z,32.87
2023-02-08T19:01:22.416Z,32.77
2023-02-08T19:03:51.785Z,31.83
2023-02-08T19:06:22.584Z,32.10
2023-02-08T19:08:52.637Z,31.33
2023-02-08T19:11:22.511Z,29.50
2023-02-08T19:13:53.016Z,29.83
2023-02-08T19:16:22.528Z,28.77
2023-02-08T19:18:50.750Z,27.53
2023-02-08T19:21:19.620Z,29.40
2023-02-08T19:23:48.342Z,30.07
2023-02-08T19:26:19.610Z,29.07
2023-02-08T19:28:47.737Z,27.13
2023-02-08T19:31:19.938Z,27.83
2023-02-08T19:33:50.389Z,27.03
2023-02-08T19:36:20.729Z,27.37
2023-02-08T19:38:49.986Z,26.83
2023-02-08T19:41:22.523Z,28.37
2023-02-08T19:43:51.344Z,27.40
2023-02-08T19:46:23.288Z,27.47
2023-02-08T19:48:51.739Z,26.73
2023-02-08T19:51:20.168Z,27.80
2023-02-08T19:53:48.479Z,28.90
2023-02-08T19:56:18.795Z,27.43
2023-02-08T19:58:48.044Z,29.33
2023-02-08T20:01:18.050Z,28.30
2023-02-08T20:03:50.487Z,34.17
2023-02-08T20:06:21.892Z,35.17
2023-02-08T20:08:50.135Z,34.10
2023-02-08T20:11:20.710Z,32.77
2023-02-08T20:13:49.296Z,33.37
2023-02-08T20:16:18.060Z,32.53
2023-02-08T20:18:46.419Z,31.33
2023-02-08T20:21:16.693Z,31.07
2023-02-08T20:23:45.177Z,31.07
2023-02-08T20:26:16.001Z,29.03
2023-02-08T20:28:46.186Z,26.33
2023-02-08T20:31:16.181Z,27.07
2023-02-08T20:33:44.487Z,32.67
2023-02-08T20:36:16.213Z,40.17
2023-02-08T20:38:45.091Z,41.90
2023-02-08T20:41:15.219Z,37.17
2023-02-08T20:43:44.728Z,42.30
2023-02-08T20:46:16.969Z,43.70
2023-02-08T20:48:45.042Z,46.50
2023-02-08T20:51:16.026Z,46.33
2023-02-08T20:53:45.957Z,49.20
2023-02-08T20:56:16.819Z,51.33
2023-02-08T20:58:44.880Z,52.37
2023-02-08T21:01:16.046Z,53.43
2023-02-08T21:03:44.084Z,52.47
2023-02-08T21:06:13.913Z,47.30
2023-02-08T21:08:43.837Z,40.97
2023-02-08T21:11:12.882Z,37.63
2023-02-08T21:13:40.756Z,39.53
2023-02-08T21:16:09.936Z,34.70
2023-02-08T21:18:38.608Z,35.03
2023-02-08T21:21:07.628Z,37.23
2023-02-08T21:23:36.638Z,39.73
2023-02-08T21:26:08.006Z,38.80
2023-02-08T21:28:36.484Z,39.43
2023-02-08T21:31:07.511Z,39.57
2023-02-08T21:33:35.978Z,37.93
2023-02-08T21:36:05.446Z,37.47
2023-02-08T21:38:33.484Z,37.83
2023-02-08T21:41:08.826Z,37.90
2023-02-08T21:43:37.857Z,38.70
2023-02-08T21:46:07.205Z,36.13
2023-02-08T21:48:55.717Z,38.17
2023-02-08T21:51:42.654Z,36.47
2023-02-08T21:54:29.548Z,36.83
2023-02-08T21:57:00.439Z,36.50
2023-02-08T21:59:29.027Z,36.77
2023-02-08T22:01:56.931Z,36.73
2023-02-08T22:04:25.410Z,36.73
2023-02-08T22:06:53.403Z,37.13
2023-02-08T22:09:21.871Z,34.47
2023-02-08T22:11:50.247Z,33.93
2023-02-08T22:14:19.609Z,32.97
2023-02-08T22:16:47.615Z,31.00
2023-02-08T22:19:15.853Z,31.23
2023-02-08T22:21:45.045Z,28.13
2023-02-08T22:24:13.002Z,24.10
2023-02-08T22:26:40.992Z,26.33
2023-02-08T22:29:08.985Z,28.77
2023-02-08T22:31:38.745Z,32.00
2023-02-08T22:34:06.800Z,31.00
2023-02-08T22:36:34.976Z,32.33
2023-02-08T22:39:02.958Z,28.23
2023-02-08T22:41:31.059Z,26.33
2023-02-08T22:43:59.066Z,27.10
2023-02-08T22:46:27.123Z,25.97
2023-02-08T22:48:56.831Z,27.03
2023-02-08T22:51:24.770Z,23.57
2023-02-08T22:53:52.720Z,23.83
2023-02-08T22:56:22.228Z,24.63
2023-02-08T22:58:50.174Z,24.20
2023-02-08T23:01:18.915Z,24.33
2023-02-08T23:03:46.864Z,25.33
2023-02-08T23:06:18.274Z,26.37
2023-02-08T23:08:46.257Z,27.83
2023-02-08T23:11:15.318Z,25.93
2023-02-08T23:13:43.213Z,26.93
2023-02-08T23:16:13.447Z,27.57
2023-02-08T23:18:41.818Z,27.13
2023-02-08T23:21:11.529Z,27.00
2023-02-08T23:23:41.460Z,28.07
2023-02-08T23:26:10.845Z,27.00
2023-02-08T23:28:39.432Z,27.57
2023-02-08T23:31:08.115Z,27.77
2023-02-08T23:33:36.585Z,26.57
2023-02-08T23:36:06.555Z,26.73
2023-02-08T23:38:34.509Z,26.00
2023-02-08T23:41:05.662Z,27.07
2023-02-08T23:43:34.634Z,27.50
2023-02-08T23:46:08.695Z,26.87
2023-02-08T23:48:39.252Z,26.97
2023-02-08T23:51:08.119Z,28.13
2023-02-08T23:53:37.192Z,27.63
2023-02-08T23:56:15.010Z,29.33
2023-02-08T23:58:43.537Z,28.70
